createdAt,value
2018-06-14T00:00:12.065Z,56.93
2018-06-14T00:00:52.624Z,57.03
2018-06-14T00:01:33.197Z,56.45
2018-06-14T00:02:13.754Z,56.35
2018-06-14T00:02:54.320Z,56.26
2018-06-14T00:03:34.906Z,56.54
2018-06-14T00:04:15.529Z,56.45
2018-06-14T00:04:56.111Z,56.64
2018-06-14T00:05:36.691Z,56.16
2018-06-14T00:06:17.251Z,56.83
2018-06-14T00:06:57.820Z,56.74
2018-06-14T00:07:38.383Z,56.16
2018-06-14T00:08:18.957Z,56.45
2018-06-14T00:08:59.560Z,56.35
2018-06-14T00:09:40.105Z,56.26
2018-06-14T00:10:20.685Z,56.64
2018-06-14T00:11:01.242Z,56.74
2018-06-14T00:11:41.793Z,56.54
2018-06-14T00:12:22.361Z,56.54
2018-06-14T00:13:02.936Z,56.35
2018-06-14T00:13:43.512Z,56.35
2018-06-14T00:14:24.086Z,56.26
2018-06-14T00:15:04.642Z,56.16
2018-06-14T00:15:45.212Z,56.35
2018-06-14T00:16:25.761Z,56.74
2018-06-14T00:17:06.317Z,56.64
2018-06-14T00:17:46.883Z,56.83
2018-06-14T00:18:27.456Z,56.93
2018-06-14T00:19:08.001Z,56.93
2018-06-14T00:19:48.540Z,57.03
2018-06-14T00:20:29.113Z,57.12
2018-06-14T00:21:09.668Z,57.41
2018-06-14T00:21:50.245Z,57.31
2018-06-14T00:22:30.786Z,57.21
2018-06-14T00:23:11.351Z,57.63
2018-06-14T00:23:51.898Z,57.5
2018-06-14T00:24:32.452Z,57.41
2018-06-14T00:25:13.057Z,57.6
2018-06-14T00:25:53.623Z,57.41
2018-06-14T00:26:34.186Z,57.5
2018-06-14T00:27:14.752Z,57.41
2018-06-14T00:27:55.303Z,57.03
2018-06-14T00:28:35.870Z,57.21
2018-06-14T00:29:16.419Z,57.31
2018-06-14T00:29:56.972Z,57.21
2018-06-14T00:30:37.525Z,57.21
2018-06-14T00:31:18.087Z,57.21
2018-06-14T00:31:58.695Z,57.72
2018-06-14T00:32:39.269Z,57.12
2018-06-14T00:33:19.825Z,57.21
2018-06-14T00:34:00.403Z,57.41
2018-06-14T00:34:40.975Z,57.31
2018-06-14T00:35:21.551Z,57.6
2018-06-14T00:36:02.120Z,57.5
2018-06-14T00:36:42.677Z,57.31
2018-06-14T00:37:23.240Z,57.41
2018-06-14T00:38:03.810Z,57.41
2018-06-14T00:38:44.376Z,58.01
2018-06-14T00:39:24.927Z,58.08
2018-06-14T00:40:05.493Z,58.11
2018-06-14T00:40:46.075Z,58.08
2018-06-14T00:41:26.622Z,57.72
2018-06-14T00:42:07.179Z,58.11
2018-06-14T00:42:47.743Z,58.01
2018-06-14T00:43:28.304Z,57.89
2018-06-14T00:44:08.855Z,57.98
2018-06-14T00:44:49.419Z,57.98
2018-06-14T00:45:29.951Z,58.11
2018-06-14T00:46:10.480Z,57.79
2018-06-14T00:46:51.024Z,58.08
2018-06-14T00:47:31.578Z,58.08
2018-06-14T00:48:12.138Z,57.98
2018-06-14T00:48:52.682Z,57.98
2018-06-14T00:49:33.242Z,57.89
2018-06-14T00:50:13.807Z,57.98
2018-06-14T00:50:54.364Z,57.89
2018-06-14T00:51:34.951Z,57.79
2018-06-14T00:52:15.507Z,58.11
2018-06-14T00:52:56.071Z,57.79
2018-06-14T00:53:36.645Z,57.92
2018-06-14T00:54:17.190Z,57.82
2018-06-14T00:54:57.751Z,57.92
2018-06-14T00:55:38.314Z,57.92
2018-06-14T00:56:18.861Z,58.2
2018-06-14T00:56:59.424Z,57.89
2018-06-14T00:57:39.958Z,57.92
2018-06-14T00:58:20.507Z,58.01
2018-06-14T00:59:01.062Z,57.43
2018-06-14T00:59:41.609Z,57.7
2018-06-14T01:00:22.138Z,58.17
2018-06-14T01:01:02.688Z,57.92
2018-06-14T01:01:43.275Z,58.01
2018-06-14T01:02:23.784Z,57.89
2018-06-14T01:03:04.343Z,57.72
2018-06-14T01:03:44.928Z,57.92
2018-06-14T01:04:25.498Z,58.2
2018-06-14T01:05:06.054Z,58.01
2018-06-14T01:05:46.630Z,58.3
2018-06-14T01:06:27.182Z,58.39
2018-06-14T01:07:07.730Z,57.89
2018-06-14T01:07:48.297Z,58.11
2018-06-14T01:08:28.844Z,57.72
2018-06-14T01:09:09.397Z,58.37
2018-06-14T01:09:49.963Z,58.3
2018-06-14T01:10:30.495Z,58.17
2018-06-14T01:11:11.054Z,58.56
2018-06-14T01:11:51.610Z,58.3
2018-06-14T01:12:32.164Z,58.37
2018-06-14T01:13:12.743Z,58.75
2018-06-14T01:13:53.309Z,58.97
2018-06-14T01:14:33.871Z,58.94
2018-06-14T01:15:14.441Z,59.06
2018-06-14T01:15:54.987Z,59.16
2018-06-14T01:16:35.559Z,59.23
2018-06-14T01:17:16.120Z,59.55
2018-06-14T01:17:56.662Z,59.33
2018-06-14T01:18:37.231Z,59.36
2018-06-14T01:19:17.787Z,59.55
2018-06-14T01:19:58.369Z,59.26
2018-06-14T01:20:38.947Z,59.74
2018-06-14T01:21:19.495Z,59.45
2018-06-14T01:22:00.071Z,59.61
2018-06-14T01:22:40.618Z,59.74
2018-06-14T01:23:21.180Z,59.93
2018-06-14T01:24:01.742Z,59.8
2018-06-14T01:24:42.297Z,59.64
2018-06-14T01:25:22.863Z,59.55
2018-06-14T01:26:03.425Z,59.61
2018-06-14T01:26:43.988Z,59.36
2018-06-14T01:27:24.573Z,59.64
2018-06-14T01:28:05.134Z,59.23
2018-06-14T01:28:45.678Z,58.84
2018-06-14T01:29:26.256Z,58.94
2018-06-14T01:30:06.819Z,58.27
2018-06-14T01:30:47.415Z,58.65
2018-06-14T01:31:27.983Z,58.2
2018-06-14T01:32:08.539Z,58.27
2018-06-14T01:32:49.083Z,58.17
2018-06-14T01:33:29.647Z,58.37
2018-06-14T01:34:10.204Z,58.46
2018-06-14T01:34:50.757Z,58.46
2018-06-14T01:35:31.320Z,58.37
2018-06-14T01:36:11.887Z,58.27
2018-06-14T01:36:52.449Z,58.84
2018-06-14T01:37:33.019Z,58.37
2018-06-14T01:38:13.588Z,58.37
2018-06-14T01:38:54.159Z,58.46
2018-06-14T01:39:34.717Z,58.46
2018-06-14T01:40:15.276Z,58.46
2018-06-14T01:40:55.857Z,58.37
2018-06-14T01:41:36.449Z,58.27
2018-06-14T01:42:16.988Z,58.37
2018-06-14T01:42:57.557Z,57.31
2018-06-14T01:43:38.129Z,57.7
2018-06-14T01:44:18.688Z,57.79
2018-06-14T01:44:59.288Z,57.21
2018-06-14T01:45:39.883Z,57.21
2018-06-14T01:46:20.464Z,56.64
2018-06-14T01:47:01.022Z,56.16
2018-06-14T01:47:41.585Z,56.64
2018-06-14T01:48:22.151Z,56.64
2018-06-14T01:49:02.713Z,56.54
2018-06-14T01:49:43.278Z,56.26
2018-06-14T01:50:23.847Z,56.54
2018-06-14T01:51:04.419Z,56.54
2018-06-14T01:51:44.988Z,56.45
2018-06-14T01:52:25.564Z,56.74
2018-06-14T01:53:06.114Z,56.83
2018-06-14T01:53:46.670Z,57.03
2018-06-14T01:54:27.219Z,56.64
2018-06-14T01:55:07.776Z,56.54
2018-06-14T01:55:48.318Z,56.64
2018-06-14T01:56:28.872Z,56.45
2018-06-14T01:57:09.430Z,56.45
2018-06-14T01:57:49.979Z,56.26
2018-06-14T01:58:30.537Z,56.45
2018-06-14T01:59:11.119Z,56.64
2018-06-14T01:59:51.687Z,56.45
2018-06-14T02:00:32.252Z,56.35
2018-06-14T02:01:12.804Z,56.35
2018-06-14T02:01:53.359Z,56.07
2018-06-14T02:02:33.908Z,56.16
2018-06-14T02:03:14.480Z,55.87
2018-06-14T02:03:55.026Z,56.64
2018-06-14T02:04:35.618Z,56.35
2018-06-14T02:05:16.147Z,56.64
2018-06-14T02:05:56.689Z,56.16
2018-06-14T02:06:37.250Z,55.87
2018-06-14T02:07:17.791Z,55.97
2018-06-14T02:07:58.338Z,55.4
2018-06-14T02:08:38.879Z,55.65
2018-06-14T02:09:19.430Z,55.85
2018-06-14T02:09:59.991Z,55.94
2018-06-14T02:10:40.565Z,56.16
2018-06-14T02:11:21.118Z,56.61
2018-06-14T02:12:01.691Z,56.32
2018-06-14T02:12:42.261Z,56.61
2018-06-14T02:13:22.844Z,56.45
2018-06-14T02:14:03.409Z,56.23
2018-06-14T02:14:43.960Z,56.52
2018-06-14T02:15:24.606Z,56.61
2018-06-14T02:16:05.165Z,56.9
2018-06-14T02:16:45.764Z,56.83
2018-06-14T02:17:26.343Z,57.19
2018-06-14T02:18:06.949Z,56.99
2018-06-14T02:18:47.504Z,56.9
2018-06-14T02:19:28.074Z,57.48
2018-06-14T02:20:08.630Z,57.57
2018-06-14T02:20:49.203Z,57.09
2018-06-14T02:21:29.757Z,57.19
2018-06-14T02:22:10.299Z,57.28
2018-06-14T02:22:50.908Z,57.57
2018-06-14T02:23:31.483Z,57.57
2018-06-14T02:24:12.033Z,57.38
2018-06-14T02:24:52.610Z,57.38
2018-06-14T02:25:33.156Z,57.38
2018-06-14T02:26:13.709Z,57.67
2018-06-14T02:26:54.269Z,57.28
2018-06-14T02:27:34.825Z,57.86
2018-06-14T02:28:15.411Z,58.05
2018-06-14T02:28:55.986Z,58.05
2018-06-14T02:29:36.544Z,57.76
2018-06-14T02:30:17.127Z,58.15
2018-06-14T02:30:57.676Z,58.34
2018-06-14T02:31:38.252Z,58.44
2018-06-14T02:32:18.792Z,58.15
2018-06-14T02:32:59.345Z,58.05
2018-06-14T02:33:39.925Z,57.76
2018-06-14T02:34:20.505Z,57.86
2018-06-14T02:35:01.077Z,57.86
2018-06-14T02:35:41.636Z,57.95
2018-06-14T02:36:22.209Z,57.76
2018-06-14T02:37:02.769Z,57.95
2018-06-14T02:37:43.338Z,58.15
2018-06-14T02:38:23.895Z,57.95
2018-06-14T02:39:04.475Z,58.05
2018-06-14T02:39:45.030Z,57.95
2018-06-14T02:40:25.618Z,58.34
2018-06-14T02:41:06.178Z,58.15
2018-06-14T02:41:46.755Z,58.24
2018-06-14T02:42:27.330Z,58.34
2018-06-14T02:43:07.881Z,58.24
2018-06-14T02:43:48.433Z,58.72
2018-06-14T02:44:29.001Z,58.05
2018-06-14T02:45:09.540Z,58.44
2018-06-14T02:45:50.099Z,58.53
2018-06-14T02:46:30.661Z,58.81
2018-06-14T02:47:11.240Z,58.44
2018-06-14T02:47:51.809Z,58.05
2018-06-14T02:48:32.381Z,58.81
2018-06-14T02:49:12.945Z,58.53
2018-06-14T02:49:53.497Z,58.72
2018-06-14T02:50:34.063Z,58.91
2018-06-14T02:51:14.604Z,58.44
2018-06-14T02:51:55.149Z,58.53
2018-06-14T02:52:35.767Z,58.62
2018-06-14T02:53:16.336Z,58.44
2018-06-14T02:53:56.899Z,58.15
2018-06-14T02:54:37.462Z,58.15
2018-06-14T02:55:18.167Z,58.34
2018-06-14T02:55:58.682Z,57.86
2018-06-14T02:56:39.234Z,57.76
2018-06-14T02:57:19.847Z,58.05
2018-06-14T02:58:00.410Z,57.86
2018-06-14T02:58:40.974Z,58.05
2018-06-14T02:59:21.550Z,58.05
2018-06-14T03:00:02.126Z,58.15
2018-06-14T03:00:42.685Z,58.34
2018-06-14T03:01:23.253Z,58.34
2018-06-14T03:02:03.825Z,58.15
2018-06-14T03:02:44.382Z,58.24
2018-06-14T03:03:24.952Z,58.34
2018-06-14T03:04:05.524Z,58.34
2018-06-14T03:04:46.084Z,58.34
2018-06-14T03:05:26.696Z,58.24
2018-06-14T03:06:07.256Z,58.34
2018-06-14T03:06:47.819Z,58.34
2018-06-14T03:07:28.395Z,58.15
2018-06-14T03:08:08.963Z,57.86
2018-06-14T03:08:49.523Z,57.86
2018-06-14T03:09:30.067Z,57.95
2018-06-14T03:10:10.642Z,58.05
2018-06-14T03:10:51.247Z,57.35
2018-06-14T03:11:31.726Z,57.48
2018-06-14T03:12:12.284Z,57.73
2018-06-14T03:12:52.822Z,57.92
2018-06-14T03:13:33.406Z,57.92
2018-06-14T03:14:14.019Z,58.02
2018-06-14T03:14:54.575Z,57.83
2018-06-14T03:15:35.167Z,57.92
2018-06-14T03:16:15.712Z,57.83
2018-06-14T03:16:56.272Z,57.92
2018-06-14T03:17:36.852Z,58.02
2018-06-14T03:18:17.414Z,58.12
2018-06-14T03:18:57.979Z,58.02
2018-06-14T03:19:38.697Z,57.92
2018-06-14T03:20:19.289Z,57.73
2018-06-14T03:20:59.841Z,57.92
2018-06-14T03:21:40.386Z,58.02
2018-06-14T03:22:20.940Z,58.31
2018-06-14T03:23:01.500Z,58.31
2018-06-14T03:23:42.044Z,58.22
2018-06-14T03:24:22.600Z,58.31
2018-06-14T03:25:03.142Z,58.4
2018-06-14T03:25:43.693Z,58.5
2018-06-14T03:26:24.254Z,58.22
2018-06-14T03:27:04.798Z,58.59
2018-06-14T03:27:45.396Z,58.69
2018-06-14T03:28:25.950Z,58.4
2018-06-14T03:29:06.510Z,58.4
2018-06-14T03:29:47.061Z,58.79
2018-06-14T03:30:27.628Z,58.98
2018-06-14T03:31:08.234Z,58.88
2018-06-14T03:31:48.776Z,58.88
2018-06-14T03:32:29.330Z,59.08
2018-06-14T03:33:09.885Z,59.36
2018-06-14T03:33:50.449Z,58.98
2018-06-14T03:34:31.001Z,59.45
2018-06-14T03:35:11.561Z,59.84
2018-06-14T03:35:52.130Z,59.94
2018-06-14T03:36:32.697Z,59.94
2018-06-14T03:37:13.258Z,60.32
2018-06-14T03:37:53.823Z,60.41
2018-06-14T03:38:34.379Z,60.89
2018-06-14T03:39:14.932Z,60.51
2018-06-14T03:39:55.473Z,60.51
2018-06-14T03:40:36.025Z,60.32
2018-06-14T03:41:16.590Z,60.89
2018-06-14T03:41:57.156Z,60.7
2018-06-14T03:42:37.743Z,60.8
2018-06-14T03:43:18.293Z,60.8
2018-06-14T03:43:58.873Z,60.8
2018-06-14T03:44:39.427Z,60.61
2018-06-14T03:45:19.985Z,60.51
2018-06-14T03:46:00.573Z,60.99
2018-06-14T03:46:41.131Z,61.08
2018-06-14T03:47:21.693Z,60.99
2018-06-14T03:48:02.277Z,61.08
2018-06-14T03:48:42.841Z,61.18
2018-06-14T03:49:23.380Z,61.28
2018-06-14T03:50:03.992Z,61.08
2018-06-14T03:50:44.553Z,60.51
2018-06-14T03:51:25.109Z,61.08
2018-06-14T03:52:05.659Z,61.28
2018-06-14T03:52:46.207Z,61.08
2018-06-14T03:53:26.774Z,61.28
2018-06-14T03:54:07.341Z,60.99
2018-06-14T03:54:47.884Z,60.99
2018-06-14T03:55:28.446Z,61.08
2018-06-14T03:56:08.997Z,61.28
2018-06-14T03:56:49.555Z,61.28
2018-06-14T03:57:30.130Z,60.99
2018-06-14T03:58:10.707Z,61.18
2018-06-14T03:58:51.246Z,61.85
2018-06-14T03:59:31.811Z,61.76
2018-06-14T04:00:12.389Z,61.76
2018-06-14T04:00:52.954Z,62.04
2018-06-14T04:01:33.523Z,62.14
2018-06-14T04:02:14.098Z,62.04
2018-06-14T04:02:54.663Z,62.14
2018-06-14T04:03:35.225Z,62.33
2018-06-14T04:04:15.774Z,62.14
2018-06-14T04:04:56.347Z,62.23
2018-06-14T04:05:36.925Z,62.23
2018-06-14T04:06:17.497Z,62.04
2018-06-14T04:06:58.058Z,62.23
2018-06-14T04:07:38.623Z,62.33
2018-06-14T04:08:19.192Z,62.71
2018-06-14T04:08:59.768Z,62.43
2018-06-14T04:09:40.317Z,62.71
2018-06-14T04:10:20.951Z,62.52
2018-06-14T04:11:01.452Z,62.71
2018-06-14T04:11:42.001Z,62.62
2018-06-14T04:12:22.555Z,63.1
2018-06-14T04:13:03.138Z,62.62
2018-06-14T04:13:43.714Z,63
2018-06-14T04:14:24.254Z,62.81
2018-06-14T04:15:04.825Z,62.81
2018-06-14T04:15:45.414Z,63.39
2018-06-14T04:16:25.988Z,63.39
2018-06-14T04:17:06.544Z,63.39
2018-06-14T04:17:47.105Z,63.19
2018-06-14T04:18:27.701Z,63.1
2018-06-14T04:19:08.217Z,63.1
2018-06-14T04:19:48.766Z,63.29
2018-06-14T04:20:29.385Z,63.1
2018-06-14T04:21:09.872Z,62.71
2018-06-14T04:21:50.435Z,63.19
2018-06-14T04:22:31.013Z,63.42
2018-06-14T04:23:11.593Z,63.39
2018-06-14T04:23:52.171Z,63.19
2018-06-14T04:24:32.724Z,63.39
2018-06-14T04:25:13.263Z,63.57
2018-06-14T04:25:53.820Z,63.7
2018-06-14T04:26:34.396Z,63.57
2018-06-14T04:27:14.965Z,63.39
2018-06-14T04:27:55.542Z,63.96
2018-06-14T04:28:36.102Z,63.57
2018-06-14T04:29:16.685Z,63.76
2018-06-14T04:29:57.236Z,63.76
2018-06-14T04:30:37.785Z,63.67
2018-06-14T04:31:18.333Z,63.96
2018-06-14T04:31:58.884Z,64.15
2018-06-14T04:32:39.459Z,64.25
2018-06-14T04:33:20.020Z,64.37
2018-06-14T04:34:00.566Z,63.8
2018-06-14T04:34:41.138Z,63.32
2018-06-14T04:35:21.735Z,63.13
2018-06-14T04:36:02.303Z,63.51
2018-06-14T04:36:42.846Z,63.13
2018-06-14T04:37:23.421Z,63.51
2018-06-14T04:38:03.944Z,63.67
2018-06-14T04:38:44.506Z,64.18
2018-06-14T04:39:25.101Z,64.28
2018-06-14T04:40:05.622Z,64.37
2018-06-14T04:40:46.182Z,64.28
2018-06-14T04:41:26.741Z,64.09
2018-06-14T04:42:07.309Z,64.18
2018-06-14T04:42:47.869Z,63.42
2018-06-14T04:43:28.491Z,63.13
2018-06-14T04:44:09.052Z,63.42
2018-06-14T04:44:49.622Z,63.42
2018-06-14T04:45:30.200Z,63.32
2018-06-14T04:46:10.762Z,63.22
2018-06-14T04:46:51.305Z,63.42
2018-06-14T04:47:31.855Z,63.22
2018-06-14T04:48:12.426Z,63.51
2018-06-14T04:48:52.975Z,63.42
2018-06-14T04:49:33.546Z,63.32
2018-06-14T04:50:14.112Z,63.22
2018-06-14T04:50:54.688Z,63.22
2018-06-14T04:51:35.252Z,63.13
2018-06-14T04:52:15.814Z,62.93
2018-06-14T04:52:56.358Z,62.84
2018-06-14T04:53:36.990Z,62.55
2018-06-14T04:54:17.500Z,62.93
2018-06-14T04:54:58.152Z,62.93
2018-06-14T04:55:38.715Z,63.22
2018-06-14T04:56:19.862Z,63.13
2018-06-14T04:57:00.462Z,62.55
2018-06-14T04:57:41.013Z,62.46
2018-06-14T04:58:21.593Z,63.22
2018-06-14T04:59:02.214Z,63.13
2018-06-14T04:59:42.781Z,63.03
2018-06-14T05:00:23.337Z,62.84
2018-06-14T05:01:03.901Z,63.42
2018-06-14T05:01:44.471Z,62.84
2018-06-14T05:02:25.099Z,63.32
2018-06-14T05:03:05.606Z,63.32
2018-06-14T05:03:46.207Z,63.32
2018-06-14T05:04:26.739Z,63.22
2018-06-14T05:05:07.342Z,63.22
2018-06-14T05:05:47.860Z,63.32
2018-06-14T05:06:28.422Z,63.42
2018-06-14T05:07:08.993Z,63.03
2018-06-14T05:07:49.566Z,62.55
2018-06-14T05:08:30.144Z,62.46
2018-06-14T05:09:10.707Z,62.65
2018-06-14T05:09:51.282Z,62.46
2018-06-14T05:10:31.867Z,63.03
2018-06-14T05:11:12.465Z,63.22
2018-06-14T05:11:53.021Z,62.93
2018-06-14T05:12:33.574Z,63.13
2018-06-14T05:13:14.137Z,62.65
2018-06-14T05:13:54.704Z,62.49
2018-06-14T05:14:35.253Z,62.96
2018-06-14T05:15:15.837Z,62.49
2018-06-14T05:15:56.413Z,62.68
2018-06-14T05:16:36.965Z,62.3
2018-06-14T05:17:17.564Z,62.49
2018-06-14T05:17:58.074Z,61.94
2018-06-14T05:18:38.626Z,60.7
2018-06-14T05:19:19.169Z,61.27
2018-06-14T05:19:59.754Z,61.75
2018-06-14T05:20:40.301Z,60.79
2018-06-14T05:21:20.885Z,59.55
2018-06-14T05:22:01.445Z,59.16
2018-06-14T05:22:42.047Z,59.55
2018-06-14T05:23:22.596Z,59.83
2018-06-14T05:24:03.149Z,60.03
2018-06-14T05:24:43.718Z,59.64
2018-06-14T05:25:24.271Z,59.83
2018-06-14T05:26:04.830Z,60.41
2018-06-14T05:26:45.395Z,60.5
2018-06-14T05:27:25.954Z,59.06
2018-06-14T05:28:06.524Z,58.39
2018-06-14T05:28:47.096Z,58.3
2018-06-14T05:29:27.676Z,58.3
2018-06-14T05:30:08.244Z,58.59
2018-06-14T05:30:48.811Z,58.39
2018-06-14T05:31:29.399Z,58.39
2018-06-14T05:32:09.936Z,58.3
2018-06-14T05:32:50.530Z,59.16
2018-06-14T05:33:31.100Z,60.5
2018-06-14T05:34:11.685Z,60.31
2018-06-14T05:34:52.312Z,60.31
2018-06-14T05:35:32.855Z,59.93
2018-06-14T05:36:13.419Z,58.97
2018-06-14T05:36:53.992Z,59.64
2018-06-14T05:37:34.551Z,59.83
2018-06-14T05:38:15.190Z,59.45
2018-06-14T05:38:56.392Z,58.87
2018-06-14T05:39:43.186Z,59.64
2018-06-14T05:40:23.737Z,59.45
2018-06-14T05:41:04.308Z,60.03
2018-06-14T05:41:44.860Z,59.55
2018-06-14T05:42:25.485Z,59.67
2018-06-14T05:43:05.969Z,58.33
2018-06-14T05:43:46.582Z,58.04
2018-06-14T05:44:27.117Z,58.49
2018-06-14T05:45:07.680Z,58.78
2018-06-14T05:45:48.233Z,59.83
2018-06-14T05:46:28.799Z,59.26
2018-06-14T05:47:09.375Z,59.16
2018-06-14T05:47:49.976Z,59.83
2018-06-14T05:48:30.527Z,59.83
2018-06-14T05:49:11.091Z,60.89
2018-06-14T05:49:51.639Z,58.87
2018-06-14T05:50:32.178Z,58.59
2018-06-14T05:51:12.744Z,58.01
2018-06-14T05:51:53.386Z,58.2
2018-06-14T05:52:33.918Z,58.49
2018-06-14T05:53:14.483Z,60.22
2018-06-14T05:53:55.071Z,61.08
2018-06-14T05:54:35.601Z,61.94
2018-06-14T05:55:16.157Z,61.78
2018-06-14T05:55:56.723Z,61.21
2018-06-14T05:56:37.293Z,61.02
2018-06-14T05:57:17.852Z,61.11
2018-06-14T05:57:58.411Z,60.05
2018-06-14T05:58:38.992Z,59.09
2018-06-14T05:59:19.536Z,58.71
2018-06-14T06:00:00.159Z,58.04
2018-06-14T06:00:40.728Z,57.46
2018-06-14T06:01:21.309Z,57.56
2018-06-14T06:02:01.876Z,56.98
2018-06-14T06:02:42.475Z,57.28
2018-06-14T06:03:23.036Z,56.98
2018-06-14T06:04:03.599Z,57.46
2018-06-14T06:04:44.159Z,57.72
2018-06-14T06:05:24.722Z,58.23
2018-06-14T06:06:05.286Z,59.29
2018-06-14T06:06:45.861Z,59.77
2018-06-14T06:07:26.435Z,59.67
2018-06-14T06:08:06.999Z,59.67
2018-06-14T06:08:47.545Z,59.67
2018-06-14T06:09:28.113Z,58.62
2018-06-14T06:10:08.668Z,57.08
2018-06-14T06:10:49.224Z,57.56
2018-06-14T06:11:29.790Z,58.14
2018-06-14T06:12:10.355Z,56.98
2018-06-14T06:12:50.930Z,55.83
2018-06-14T06:13:31.501Z,57.21
2018-06-14T06:14:12.071Z,58.45
2018-06-14T06:14:53.013Z,58.55
2018-06-14T06:15:34.276Z,58.64
2018-06-14T06:16:15.726Z,58.29
2018-06-14T06:16:56.324Z,57.33
2018-06-14T06:17:36.896Z,57.14
2018-06-14T06:18:17.482Z,57.26
2018-06-14T06:18:58.057Z,56.3
2018-06-14T06:19:38.627Z,56.49
2018-06-14T06:20:19.202Z,55.91
2018-06-14T06:20:59.773Z,55.76
2018-06-14T06:21:40.348Z,56.14
2018-06-14T06:22:20.920Z,55.56
2018-06-14T06:23:01.549Z,55.46
2018-06-14T06:23:42.126Z,54.14
2018-06-14T06:24:22.693Z,53.66
2018-06-14T06:25:03.492Z,54.05
2018-06-14T06:25:44.269Z,53.86
2018-06-14T06:26:24.951Z,53.69
2018-06-14T06:27:05.434Z,52.54
2018-06-14T06:27:46.038Z,52.25
2018-06-14T06:28:26.593Z,52.34
2018-06-14T06:29:07.173Z,49.46
2018-06-14T06:29:47.737Z,49.36
2018-06-14T06:30:28.338Z,50.99
2018-06-14T06:31:08.977Z,50.61
2018-06-14T06:31:49.553Z,50.42
2018-06-14T06:32:30.163Z,51.29
2018-06-14T06:33:10.772Z,51.64
2018-06-14T06:33:51.355Z,51.26
2018-06-14T06:34:31.964Z,51.29
2018-06-14T06:35:12.611Z,50.87
2018-06-14T06:35:53.180Z,50.49
2018-06-14T06:36:33.752Z,51.07
2018-06-14T06:37:14.476Z,51.26
2018-06-14T06:37:55.028Z,50.87
2018-06-14T06:38:35.710Z,50.59
2018-06-14T06:39:16.533Z,50.3
2018-06-14T06:39:57.091Z,50.78
2018-06-14T06:40:37.662Z,51.45
2018-06-14T06:41:18.235Z,52.22
2018-06-14T06:41:58.829Z,51.17
2018-06-14T06:42:39.390Z,50.49
2018-06-14T06:43:19.943Z,51.74
2018-06-14T06:44:00.571Z,52.12
2018-06-14T06:44:41.213Z,52.42
2018-06-14T06:45:21.784Z,52.03
2018-06-14T06:46:02.460Z,50.01
2018-06-14T06:46:43.027Z,50.61
2018-06-14T06:47:23.711Z,49.63
2018-06-14T06:48:04.314Z,49.91
2018-06-14T06:48:44.883Z,50.01
2018-06-14T06:49:25.471Z,50.2
2018-06-14T06:50:06.091Z,50.3
2018-06-14T06:50:46.664Z,50.78
2018-06-14T06:51:27.307Z,51.07
2018-06-14T06:52:07.877Z,51.19
2018-06-14T06:52:48.467Z,52.34
2018-06-14T06:53:29.121Z,51.38
2018-06-14T06:54:09.682Z,48.02
2018-06-14T06:54:50.242Z,46.77
2018-06-14T06:55:30.855Z,47.24
2018-06-14T06:56:11.431Z,48.3
2018-06-14T06:56:51.981Z,49.46
2018-06-14T06:57:32.617Z,51.29
2018-06-14T06:58:13.201Z,49.87
2018-06-14T06:58:53.759Z,47.56
2018-06-14T06:59:34.315Z,45.83
2018-06-14T07:00:14.979Z,43.32
2018-06-14T07:00:55.559Z,43.51
2018-06-14T07:01:36.161Z,42.82
2018-06-14T07:02:16.767Z,43.4
2018-06-14T07:02:57.452Z,43.49
2018-06-14T07:03:38.068Z,44.07
2018-06-14T07:04:18.700Z,45.03
2018-06-14T07:04:59.282Z,46.57
2018-06-14T07:05:39.850Z,47.05
2018-06-14T07:06:20.601Z,47.82
2018-06-14T07:07:01.014Z,48.3
2018-06-14T07:07:41.592Z,47.75
2018-06-14T07:08:22.165Z,47.56
2018-06-14T07:09:02.775Z,47.94
2018-06-14T07:09:43.381Z,47.36
2018-06-14T07:10:23.941Z,45.63
2018-06-14T07:11:04.519Z,43.44
2018-06-14T07:11:45.089Z,43.51
2018-06-14T07:12:25.661Z,44.09
2018-06-14T07:13:06.214Z,44.09
2018-06-14T07:13:46.807Z,43.9
2018-06-14T07:14:27.359Z,44.45
2018-06-14T07:15:07.962Z,45.8
2018-06-14T07:15:48.527Z,46.57
2018-06-14T07:16:29.074Z,46.47
2018-06-14T07:17:09.648Z,46.47
2018-06-14T07:17:50.212Z,46.38
2018-06-14T07:18:30.778Z,46.09
2018-06-14T07:19:11.351Z,46.38
2018-06-14T07:19:51.978Z,47.05
2018-06-14T07:20:32.557Z,45.8
2018-06-14T07:21:13.160Z,45.7
2018-06-14T07:21:56.160Z,47.15
2018-06-14T07:22:36.699Z,47.15
2018-06-14T07:23:17.269Z,47.63
2018-06-14T07:23:57.842Z,48.02
2018-06-14T07:24:38.418Z,47.34
2018-06-14T07:25:18.977Z,47.24
2018-06-14T07:25:59.541Z,45.9
2018-06-14T07:26:40.122Z,44.26
2018-06-14T07:27:20.732Z,44.35
2018-06-14T07:28:01.300Z,44.34
2018-06-14T07:28:41.852Z,44.07
2018-06-14T07:29:22.416Z,45.78
2018-06-14T07:30:03.077Z,46.06
2018-06-14T07:30:43.688Z,44.74
2018-06-14T07:31:24.613Z,45.03
2018-06-14T07:32:05.206Z,46.09
2018-06-14T07:32:45.869Z,46.47
2018-06-14T07:33:26.517Z,45.51
2018-06-14T07:34:07.064Z,45.9
2018-06-14T07:34:47.638Z,45.22
2018-06-14T07:35:28.218Z,44.74
2018-06-14T07:36:08.787Z,45.61
2018-06-14T07:36:49.354Z,46.47
2018-06-14T07:37:29.953Z,46.38
2018-06-14T07:38:10.549Z,45.8
2018-06-14T07:38:51.114Z,45.8
2018-06-14T07:39:31.674Z,45.83
2018-06-14T07:40:12.261Z,45.51
2018-06-14T07:40:52.842Z,45.22
2018-06-14T07:41:33.413Z,45.22
2018-06-14T07:42:13.991Z,45.7
2018-06-14T07:42:54.559Z,45.8
2018-06-14T07:43:35.132Z,45.03
2018-06-14T07:44:15.742Z,44.35
2018-06-14T07:44:56.337Z,44.55
2018-06-14T07:45:36.905Z,45.42
2018-06-14T07:46:17.483Z,45.8
2018-06-14T07:46:58.044Z,45.22
2018-06-14T07:47:38.604Z,45.32
2018-06-14T07:48:19.150Z,44.84
2018-06-14T07:48:59.725Z,45.7
2018-06-14T07:49:40.302Z,45.8
2018-06-14T07:50:20.879Z,45.9
2018-06-14T07:51:01.466Z,46.67
2018-06-14T07:51:42.040Z,47.92
2018-06-14T07:52:22.608Z,48.33
2018-06-14T07:53:03.182Z,48.13
2018-06-14T07:53:43.767Z,48.83
2018-06-14T07:54:24.339Z,44.59
2018-06-14T07:55:04.919Z,43.44
2018-06-14T07:55:45.497Z,43.44
2018-06-14T07:56:26.074Z,44.4
2018-06-14T07:57:06.660Z,44.04
2018-06-14T07:57:47.239Z,43.37
2018-06-14T07:58:27.806Z,42.59
2018-06-14T07:59:08.376Z,44.13
2018-06-14T07:59:48.956Z,44.04
2018-06-14T08:00:29.594Z,45
2018-06-14T08:01:10.207Z,44.25
2018-06-14T08:01:50.780Z,43.58
2018-06-14T08:02:31.353Z,43.67
2018-06-14T08:03:11.933Z,43.77
2018-06-14T08:03:52.510Z,40.97
2018-06-14T08:04:33.081Z,40.01
2018-06-14T08:05:13.664Z,39.79
2018-06-14T08:05:54.216Z,39.61
2018-06-14T08:06:34.801Z,39.7
2018-06-14T08:07:15.377Z,39.97
2018-06-14T08:07:55.918Z,40.74
2018-06-14T08:08:36.493Z,41.13
2018-06-14T08:09:17.072Z,41.78
2018-06-14T08:09:57.666Z,42.55
2018-06-14T08:10:38.253Z,42.74
2018-06-14T08:11:18.819Z,43.41
2018-06-14T08:11:59.384Z,43.41
2018-06-14T08:12:39.951Z,43.41
2018-06-14T08:13:20.524Z,44.09
2018-06-14T08:14:01.088Z,45.25
2018-06-14T08:14:41.666Z,44.07
2018-06-14T08:15:22.226Z,42.14
2018-06-14T08:16:02.799Z,42.63
2018-06-14T08:16:43.383Z,43.2
2018-06-14T08:17:23.930Z,42.91
2018-06-14T08:18:04.497Z,43.88
2018-06-14T08:18:45.053Z,45.03
2018-06-14T08:19:25.599Z,45.32
2018-06-14T08:20:06.179Z,44.17
2018-06-14T08:20:46.743Z,44.26
2018-06-14T08:21:27.320Z,45.32
2018-06-14T08:22:07.874Z,45.99
2018-06-14T08:22:48.433Z,45.8
2018-06-14T08:23:29.004Z,45.61
2018-06-14T08:24:09.556Z,45.05
2018-06-14T08:24:50.124Z,43.78
2018-06-14T08:25:30.727Z,43.97
2018-06-14T08:26:11.275Z,45.73
2018-06-14T08:26:51.839Z,46.4
2018-06-14T08:27:32.420Z,46.78
2018-06-14T08:28:12.990Z,47
2018-06-14T08:28:53.554Z,46.62
2018-06-14T08:29:34.261Z,46.23
2018-06-14T08:30:14.817Z,45.75
2018-06-14T08:30:55.386Z,46.14
2018-06-14T08:31:36.048Z,43.94
2018-06-14T08:32:16.555Z,43.94
2018-06-14T08:32:57.124Z,42.88
2018-06-14T08:33:37.689Z,40.66
2018-06-14T08:34:18.247Z,40.28
2018-06-14T08:34:58.812Z,40.84
2018-06-14T08:35:39.369Z,40.84
2018-06-14T08:36:19.939Z,42.38
2018-06-14T08:37:00.521Z,42.96
2018-06-14T08:37:41.067Z,42.67
2018-06-14T08:38:21.633Z,43.71
2018-06-14T08:39:02.201Z,43.51
2018-06-14T08:39:42.782Z,43.03
2018-06-14T08:40:23.358Z,42.07
2018-06-14T08:41:03.916Z,42.36
2018-06-14T08:41:44.490Z,42.46
2018-06-14T08:42:25.064Z,41.97
2018-06-14T08:43:05.655Z,42.82
2018-06-14T08:43:46.273Z,42.53
2018-06-14T08:44:26.817Z,42.43